• Join FlightAware (Why Join?)
  • Login
  • US Flag 
11:39AM EST


 

Airport Tracker/Info


-or-


 

Live Flight TrackerFlight Track Log ✈ BOE5 ✈ 15-Apr-2013 ✈ KSBD - KSBD

Flight Track Log - Related Links

Times and Time Zones

All times are in EDT time to prevent confusion due to time zone crossing. See the BOE5 flight status page for this flight to view local times or setup timezone preferences in your user account.

Time Position Orientation Groundspeed Altitude Reporting Facility
EDT Latitude Longitude Course Direction KTS MPH feet Rate Location/Type
01:03PM 34.0860 -117.2550 225° Southwest 173 199 2,400  Level FlightAware
01:03PM 34.0690 -117.2770 227° Southwest 205 236 3,400 2,040 Climbing FlightAware
01:04PM 34.0530 -117.3030 233° Southwest 240 276 4,300 2,700 Climbing FlightAware
01:04PM 34.0420 -117.3190 230° Southwest 246 283 5,200 3,180 Climbing FlightAware
01:04PM 34.0320 -117.3300 222° Southwest 252 290 5,900 3,360 Climbing FlightAware
01:04PM 34.0130 -117.3350 192° South 258 297 6,900 3,120 Climbing FlightAware
01:05PM 33.9820 -117.3260 166° South 278 320 8,000 2,400 Climbing FlightAware
01:05PM 33.9430 -117.3130 165° South 302 348 9,100 2,100 Climbing FlightAware
01:06PM 33.9250 -117.3070 165° South 306 352 9,600 2,160 Climbing FlightAware
01:06PM 33.8660 -117.2870 164° South 313 360 11,100 2,100 Climbing FlightAware
01:07PM 33.8090 -117.2690 165° South 313 360 12,400 1,440 Climbing FlightAware
01:08PM 33.7460 -117.2490 165° South 318 366 13,200 960 Climbing FlightAware
01:08PM 33.6890 -117.2300 164° South 337 388 13,800 1,200 Climbing FlightAware
01:09PM 33.6140 -117.2060 165° South 383 441 14,900 1,440 Climbing FlightAware
01:10PM 33.5400 -117.1820 165° South 419 482 15,900 2,040 Climbing FlightAware
01:11PM 33.4570 -117.1580 166° South 423 487 17,800 2,460 Climbing FlightAware
01:11PM 33.3870 -117.1870 199° South 399 459 19,400 1,620 Climbing FlightAware
01:12PM 33.3430 -117.2520 231° Southwest 381 438 20,000 420 Climbing FlightAware
01:13PM 33.2960 -117.3290 234° Southwest 360 414 20,000  Level FlightAware
01:13PM 33.2580 -117.3900 233° Southwest 334 384 20,000  Level FlightAware
01:14PM 33.2470 -117.4170 244° Southwest 316 364 20,000  Level FlightAware
01:14PM 33.2440 -117.4370 260° West 305 351 20,000  Level FlightAware
01:14PM 33.2530 -117.5030 279° West 287 330 20,000  Level FlightAware
01:15PM 33.2610 -117.5650 279° West 276 318 20,000  Level FlightAware
01:16PM 33.2700 -117.6330 279° West 269 310 20,000  Level FlightAware
01:17PM 33.2780 -117.6910 279° West 267 307 20,000  Level FlightAware
01:17PM 33.2860 -117.7490 279° West 269 310 20,000  Level FlightAware
01:18PM 33.2950 -117.8120 280° West 263 303 20,000  Level FlightAware
01:19PM 33.3020 -117.8710 278° West 261 300 20,000  Level FlightAware
01:19PM 33.3110 -117.9370 279° West 262 302 20,000  Level FlightAware
01:20PM 33.3190 -117.9940 280° West 263 303 20,000  Level FlightAware
01:21PM 33.3270 -118.0580 279° West 262 302 20,000  Level FlightAware
01:21PM 33.3350 -118.1150 280° West 262 302 20,000  Level FlightAware
01:22PM 33.3420 -118.1720 278° West 262 302 20,000  Level FlightAware
01:23PM 33.3510 -118.2380 279° West 263 303 20,000  Level FlightAware
01:24PM 33.3590 -118.2940 280° West 260 299 20,000  Level FlightAware
01:24PM 33.3660 -118.3520 278° West 262 302 20,000  Level FlightAware
01:25PM 33.3720 -118.4040 278° West 262 302 20,000  Level FlightAware
01:25PM 33.3700 -118.4220 262° West 264 304 20,000  Level FlightAware
01:25PM 33.3620 -118.4380 239° Southwest 274 315 20,000  Level FlightAware
01:26PM 33.3240 -118.4880 228° Southwest 277 319 20,000  Level FlightAware
01:27PM 33.2910 -118.5310 227° Southwest 277 319 20,000  Level FlightAware
01:28PM 33.2400 -118.5990 228° Southwest 279 321 20,000  Level FlightAware
01:28PM 33.2030 -118.6470 227° Southwest 276 318 20,000  Level FlightAware
01:29PM 33.1700 -118.6910 228° Southwest 277 319 20,000  Level FlightAware
01:30PM 33.1220 -118.7540 228° Southwest 277 319 20,000  Level FlightAware
01:31PM 33.0750 -118.8150 227° Southwest 271 312 20,000  Level FlightAware
01:31PM 33.0490 -118.8500 228° Southwest 271 312 20,000  Level FlightAware
01:32PM 33.0280 -118.8790 229° Southwest 271 312 20,000  Level FlightAware
01:33PM 33.0000 -118.9170 229° Southwest 271 312 20,000  Level FlightAware
01:33PM 32.9650 -118.9650 229° Southwest 271 312 20,000  Level FlightAware
01:34PM 32.9440 -118.9940 229° Southwest 271 312 20,000  Level FlightAware
01:35PM 32.9160 -119.0320 229° Southwest 271 312 20,000  Level FlightAware
01:35PM 32.8547 -119.1017 229° Southwest 279 321 20,000  Level Los Angeles Center
01:36PM 32.8025 -119.1706 228° Southwest 280 322 20,000  Level Los Angeles Center
01:37PM 32.7483 -119.2386 227° Southwest 282 325 20,000  Level Los Angeles Center
01:38PM 32.6853 -119.3225 228° Southwest 284 327 20,000  Level Los Angeles Center
01:39PM 32.6319 -119.3906 227° Southwest 282 325 20,000  Level Los Angeles Center
01:40PM 32.5786 -119.4592 227° Southwest 284 327 20,000  Level Los Angeles Center
01:41PM 32.5250 -119.5283 227° Southwest 284 327 20,000  Level Los Angeles Center
01:42PM 32.4706 -119.5975 227° Southwest 287 330 20,000  Level Los Angeles Center
01:43PM 32.4175 -119.6658 227° Southwest 284 327 20,000  Level Los Angeles Center
01:44PM 32.3531 -119.7483 227° Southwest 284 327 20,000  Level Los Angeles Center
01:45PM 32.2994 -119.8167 227° Southwest 284 327 20,000  Level Los Angeles Center
01:47PM 32.2456 -119.8842 227° Southwest 284 327 20,000  Level Los Angeles Center
01:48PM 32.1911 -119.9531 227° Southwest 287 330 20,000  Level Los Angeles Center
01:49PM 32.1319 -120.0258 226° Southwest 286 329 20,000 -60 Level Los Angeles Center
01:50PM 32.0792 -120.0958 228° Southwest 285 328 19,900 -60 Descending Los Angeles Center
01:51PM 32.0244 -120.1642 227° Southwest 286 329 19,900  Level Los Angeles Center
01:52PM 31.9697 -120.2322 227° Southwest 287 330 20,000  Climbing Los Angeles Center
01:53PM 31.9047 -120.3142 227° Southwest 283 326 19,900  Descending Los Angeles Center
01:54PM 31.8611 -120.3678 226° Southwest 284 327 20,000  Climbing Los Angeles Center
01:55PM 31.7964 -120.4489 227° Southwest 283 326 20,000  Level Los Angeles Center
01:56PM 31.7425 -120.5167 227° Southwest 284 327 20,000  Level Los Angeles Center
01:58PM 31.8482 -120.3753 49° Northeast  Level Estimated
02:05PM 32.2861 -119.7841 49° Northeast  Level Estimated
02:06PM 32.3484 -119.6992 49° Northeast  Level Estimated
02:07PM 32.4107 -119.6141 49° Northeast  Level Estimated
02:08PM 32.4729 -119.5289 49° Northeast  Level Estimated
02:09PM 32.5350 -119.4437 49° Northeast  Level Estimated
02:10PM 32.5971 -119.3583 49° Northeast  Level Estimated
02:11PM 32.6592 -119.2727 49° Northeast  Level Estimated
02:12PM 32.7212 -119.1871 49° Northeast  Level Estimated
02:13PM 32.7831 -119.1013 49° Northeast  Level Estimated
02:14PM 32.8450 -119.0155 49° Northeast  Level Estimated
02:15PM 32.9068 -118.9295 49° Northeast  Level Estimated
02:16PM 32.9685 -118.8434 49° Northeast  Level Estimated
02:17PM 33.0302 -118.7571 50° Northeast  Level Estimated
02:18PM 33.0918 -118.6708 50° Northeast  Level Estimated
02:19PM 33.1534 -118.5843 50° Northeast  Level Estimated
02:20PM 33.2149 -118.4977 50° Northeast  Level Estimated
02:21PM 33.2764 -118.4110 50° Northeast  Level Estimated
02:22PM 33.3378 -118.3241 50° Northeast  Level Estimated
02:22PM 29.8833 -121.3667 188° South 290 334 20,000  Level Oakland Oceanic (ODAPS)
02:23PM 33.3991 -118.2372 50° Northeast  Level Estimated
02:24PM 33.4604 -118.1501 50° Northeast  Level Estimated
02:25PM 33.5216 -118.0629 50° Northeast  Level Estimated
02:26PM 33.5827 -117.9755 50° Northeast  Level Estimated
02:27PM 33.6438 -117.8881 50° Northeast  Level Estimated
02:28PM 33.7048 -117.8005 50° Northeast  Level Estimated
02:29PM 29.2409 -121.4639 187° South 290 334 20,000  Level FlightAware Transoceanic
02:30PM 29.1606 -121.4759 187° South 290 334 20,000  Level FlightAware Transoceanic
02:31PM 29.0803 -121.4880 187° South 290 334 20,000  Level FlightAware Transoceanic
02:32PM 29.0000 -121.5000 North 290 334 20,000  Level FlightAware Transoceanic
02:33PM 29.1324 -121.4789 North 290 334 20,000  Level FlightAware Transoceanic
02:34PM 29.2648 -121.4577 North 290 334 20,000  Level FlightAware Transoceanic
02:35PM 29.3971 -121.4365 North 290 334 20,000  Level FlightAware Transoceanic
02:36PM 29.8441 -121.3726 188° South 9 10 20,000  Level FlightAware Transoceanic
02:37PM 29.8415 -121.3730 188° South 9 10 20,000  Level FlightAware Transoceanic
02:38PM 29.8389 -121.3734 188° South 9 10 20,000  Level FlightAware Transoceanic
02:39PM 29.8363 -121.3738 188° South 9 10 20,000  Level FlightAware Transoceanic
02:40PM 29.8337 -121.3742 188° South 9 10 20,000  Level FlightAware Transoceanic
02:41PM 29.8311 -121.3746 188° South 9 10 20,000  Level FlightAware Transoceanic
02:42PM 29.8285 -121.3750 188° South 9 10 20,000  Level FlightAware Transoceanic
02:43PM 29.8258 -121.3754 188° South 9 10 20,000  Level FlightAware Transoceanic
02:44PM 29.8232 -121.3758 188° South 9 10 20,000  Level FlightAware Transoceanic
02:45PM 29.8206 -121.3762 188° South 9 10 20,000  Level FlightAware Transoceanic
02:46PM 29.8180 -121.3766 188° South 9 10 20,000  Level FlightAware Transoceanic
02:47PM 29.8154 -121.3770 188° South 9 10 20,000  Level FlightAware Transoceanic
02:48PM 29.8128 -121.3774 188° South 9 10 20,000  Level FlightAware Transoceanic
02:49PM 29.8102 -121.3778 188° South 9 10 20,000  Level FlightAware Transoceanic
02:50PM 29.8076 -121.3782 188° South 9 10 20,000  Level FlightAware Transoceanic
02:51PM 29.8049 -121.3786 188° South 9 10 20,000  Level FlightAware Transoceanic
02:52PM 29.8023 -121.3790 188° South 9 10 20,000  Level FlightAware Transoceanic
02:53PM 29.7997 -121.3794 188° South 9 10 20,000  Level FlightAware Transoceanic
02:54PM 29.7971 -121.3798 188° South 9 10 20,000  Level FlightAware Transoceanic
02:55PM 29.7945 -121.3802 188° South 9 10 20,000  Level FlightAware Transoceanic
02:56PM 29.7919 -121.3806 188° South 9 10 20,000  Level FlightAware Transoceanic
02:57PM 29.7893 -121.3810 188° South 9 10 20,000  Level FlightAware Transoceanic
02:58PM 29.7866 -121.3814 188° South 9 10 20,000  Level FlightAware Transoceanic
02:59PM 29.7840 -121.3818 188° South 9 10 20,000  Level FlightAware Transoceanic
03:00PM 29.7814 -121.3822 188° South 9 10 20,000  Level FlightAware Transoceanic
03:01PM 29.7788 -121.3826 188° South 9 10 20,000  Level FlightAware Transoceanic
03:02PM 29.7762 -121.3830 188° South 9 10 20,000  Level FlightAware Transoceanic
03:03PM 29.7736 -121.3834 188° South 9 10 20,000  Level FlightAware Transoceanic
03:04PM 29.7710 -121.3838 188° South 9 10 20,000  Level FlightAware Transoceanic
03:05PM 29.7684 -121.3842 188° South 9 10 20,000  Level FlightAware Transoceanic
03:06PM 29.7657 -121.3846 188° South 9 10 20,000  Level FlightAware Transoceanic
03:07PM 29.7631 -121.3849 188° South 9 10 20,000  Level FlightAware Transoceanic
03:08PM 29.7605 -121.3854 188° South 9 10 20,000  Level FlightAware Transoceanic
03:09PM 29.7579 -121.3857 188° South 9 10 20,000  Level FlightAware Transoceanic
03:10PM 29.7553 -121.3861 188° South 9 10 20,000  Level FlightAware Transoceanic
03:11PM 29.7527 -121.3865 188° South 9 10 20,000  Level FlightAware Transoceanic
03:12PM 29.7501 -121.3869 188° South 9 10 20,000  Level FlightAware Transoceanic
03:13PM 29.7474 -121.3873 188° South 9 10 20,000  Level FlightAware Transoceanic
03:14PM 29.7448 -121.3877 188° South 9 10 20,000  Level FlightAware Transoceanic
03:15PM 29.7422 -121.3881 188° South 9 10 20,000  Level FlightAware Transoceanic
03:16PM 29.7396 -121.3885 188° South 9 10 20,000  Level FlightAware Transoceanic
03:17PM 29.7370 -121.3889 188° South 9 10 20,000  Level FlightAware Transoceanic
03:18PM 29.7344 -121.3893 188° South 9 10 20,000  Level FlightAware Transoceanic
03:19PM 29.7318 -121.3897 188° South 9 10 20,000  Level FlightAware Transoceanic
03:20PM 29.7292 -121.3901 188° South 9 10 20,000  Level FlightAware Transoceanic
03:21PM 29.7265 -121.3905 188° South 9 10 20,000  Level FlightAware Transoceanic
03:22PM 29.7239 -121.3909 188° South 9 10 20,000  Level FlightAware Transoceanic
03:23PM 29.7213 -121.3913 188° South 9 10 20,000  Level FlightAware Transoceanic
03:24PM 29.7187 -121.3917 188° South 9 10 20,000  Level FlightAware Transoceanic
03:25PM 29.7161 -121.3921 188° South 9 10 20,000  Level FlightAware Transoceanic
03:26PM 29.7135 -121.3925 188° South 9 10 20,000  Level FlightAware Transoceanic
03:27PM 29.7109 -121.3929 188° South 9 10 20,000  Level FlightAware Transoceanic
03:28PM 29.7083 -121.3933 188° South 9 10 20,000  Level FlightAware Transoceanic
03:29PM 29.7056 -121.3937 188° South 9 10 20,000  Level FlightAware Transoceanic
03:30PM 29.7030 -121.3941 188° South 9 10 20,000  Level FlightAware Transoceanic
03:31PM 29.7004 -121.3945 188° South 9 10 20,000  Level FlightAware Transoceanic
03:32PM 29.6978 -121.3949 188° South 9 10 20,000  Level FlightAware Transoceanic
03:33PM 29.6952 -121.3953 188° South 9 10 20,000  Level FlightAware Transoceanic
03:34PM 29.6926 -121.3957 188° South 9 10 20,000  Level FlightAware Transoceanic
03:35PM 29.6900 -121.3961 188° South 9 10 20,000  Level FlightAware Transoceanic
03:36PM 29.6873 -121.3964 188° South 9 10 20,000  Level FlightAware Transoceanic
03:37PM 29.6847 -121.3969 188° South 9 10 20,000  Level FlightAware Transoceanic
03:38PM 29.6821 -121.3972 188° South 9 10 20,000  Level FlightAware Transoceanic
03:39PM 29.6795 -121.3976 188° South 9 10 20,000  Level FlightAware Transoceanic
03:40PM 29.6769 -121.3980 188° South 9 10 20,000  Level FlightAware Transoceanic
03:41PM 29.6743 -121.3984 188° South 9 10 20,000  Level FlightAware Transoceanic
03:42PM 29.6717 -121.3988 188° South 9 10 20,000  Level FlightAware Transoceanic
03:43PM 29.6691 -121.3992 188° South 9 10 20,000  Level FlightAware Transoceanic
03:44PM 29.6664 -121.3996 188° South 9 10 20,000  Level FlightAware Transoceanic
03:45PM 29.6638 -121.4000 188° South 9 10 20,000  Level FlightAware Transoceanic
03:46PM 29.6612 -121.4004 188° South 9 10 20,000  Level FlightAware Transoceanic
03:47PM 29.6586 -121.4008 188° South 9 10 20,000  Level FlightAware Transoceanic
03:48PM 29.6560 -121.4012 188° South 9 10 20,000  Level FlightAware Transoceanic
03:49PM 29.6534 -121.4016 188° South 9 10 20,000  Level FlightAware Transoceanic
03:50PM 29.6507 -121.4020 188° South 9 10 20,000  Level FlightAware Transoceanic
03:51PM 29.6481 -121.4024 188° South 9 10 20,000  Level FlightAware Transoceanic
03:52PM 29.6455 -121.4028 188° South 9 10 20,000  Level FlightAware Transoceanic
03:53PM 29.6429 -121.4032 188° South 9 10 20,000  Level FlightAware Transoceanic
03:54PM 29.6403 -121.4036 188° South 9 10 20,000  Level FlightAware Transoceanic
03:55PM 29.6377 -121.4040 188° South 9 10 20,000  Level FlightAware Transoceanic
03:56PM 29.6351 -121.4044 188° South 9 10 20,000  Level FlightAware Transoceanic
03:57PM 29.6325 -121.4048 188° South 9 10 20,000  Level FlightAware Transoceanic
03:58PM 29.6299 -121.4052 188° South 9 10 20,000  Level FlightAware Transoceanic
03:59PM 29.6272 -121.4056 188° South 9 10 20,000  Level FlightAware Transoceanic
04:00PM 29.6246 -121.4060 188° South 9 10 20,000  Level FlightAware Transoceanic
04:01PM 29.6220 -121.4064 188° South 9 10 20,000  Level FlightAware Transoceanic
04:02PM 29.6194 -121.4068 188° South 9 10 20,000  Level FlightAware Transoceanic
04:03PM 29.6168 -121.4072 188° South 9 10 20,000  Level FlightAware Transoceanic
04:04PM 29.6142 -121.4075 188° South 9 10 20,000  Level FlightAware Transoceanic
04:05PM 29.6115 -121.4079 188° South 9 10 20,000  Level FlightAware Transoceanic
04:06PM 29.6089 -121.4083 188° South 9 10 20,000  Level FlightAware Transoceanic
04:07PM 29.6063 -121.4087 188° South 9 10 20,000  Level FlightAware Transoceanic
04:08PM 29.6037 -121.4091 188° South 9 10 20,000  Level FlightAware Transoceanic
04:09PM 29.6011 -121.4095 188° South 9 10 20,000  Level FlightAware Transoceanic
04:10PM 29.5985 -121.4099 187° South 9 10 20,000  Level FlightAware Transoceanic
04:11PM 29.5959 -121.4103 187° South 9 10 20,000  Level FlightAware Transoceanic
04:12PM 29.5933 -121.4107 187° South 9 10 20,000  Level FlightAware Transoceanic
04:13PM 29.5907 -121.4111 187° South 9 10 20,000  Level FlightAware Transoceanic
04:14PM 29.5880 -121.4115 187° South 9 10 20,000  Level FlightAware Transoceanic
04:15PM 29.5854 -121.4119 187° South 9 10 20,000  Level FlightAware Transoceanic
04:16PM 29.5828 -121.4123 187° South 9 10 20,000  Level FlightAware Transoceanic
04:17PM 29.5802 -121.4127 187° South 9 10 20,000  Level FlightAware Transoceanic
04:18PM 29.5776 -121.4131 187° South 9 10 20,000  Level FlightAware Transoceanic
04:19PM 29.5750 -121.4135 187° South 9 10 20,000  Level FlightAware Transoceanic
04:20PM 29.5723 -121.4139 187° South 9 10 20,000  Level FlightAware Transoceanic
04:21PM 29.5697 -121.4143 187° South 9 10 20,000  Level FlightAware Transoceanic
04:22PM 29.5671 -121.4147 187° South 9 10 20,000  Level FlightAware Transoceanic
04:23PM 29.5645 -121.4151 187° South 9 10 20,000  Level FlightAware Transoceanic
04:24PM 29.5619 -121.4155 187° South 9 10 20,000  Level FlightAware Transoceanic
04:25PM 29.5593 -121.4158 187° South 9 10 20,000  Level FlightAware Transoceanic
04:26PM 29.5567 -121.4163 187° South 9 10 20,000  Level FlightAware Transoceanic
04:27PM 29.5541 -121.4166 187° South 9 10 20,000  Level FlightAware Transoceanic
04:28PM 29.5515 -121.4170 187° South 9 10 20,000  Level FlightAware Transoceanic
04:29PM 29.5488 -121.4174 187° South 9 10 20,000  Level FlightAware Transoceanic
04:30PM 29.5462 -121.4178 187° South 9 10 20,000  Level FlightAware Transoceanic
04:31PM 29.5436 -121.4182 187° South 9 10 20,000  Level FlightAware Transoceanic
04:32PM 29.5410 -121.4186 187° South 9 10 20,000  Level FlightAware Transoceanic
04:33PM 29.5384 -121.4190 187° South 9 10 20,000  Level FlightAware Transoceanic
04:34PM 29.5358 -121.4194 187° South 9 10 20,000  Level FlightAware Transoceanic
04:35PM 29.5331 -121.4198 187° South 9 10 20,000  Level FlightAware Transoceanic
04:36PM 29.5305 -121.4202 187° South 9 10 20,000  Level FlightAware Transoceanic
04:37PM 29.5279 -121.4206 187° South 9 10 20,000  Level FlightAware Transoceanic
04:38PM 29.5253 -121.4210 187° South 9 10 20,000  Level FlightAware Transoceanic
04:39PM 29.5227 -121.4214 187° South 9 10 20,000  Level FlightAware Transoceanic
04:40PM 29.5201 -121.4218 187° South 9 10 20,000  Level FlightAware Transoceanic
04:41PM 29.5175 -121.4222 187° South 9 10 20,000  Level FlightAware Transoceanic
04:42PM 29.5149 -121.4226 187° South 9 10 20,000  Level FlightAware Transoceanic
04:43PM 29.5122 -121.4230 187° South 9 10 20,000  Level FlightAware Transoceanic
04:44PM 29.5096 -121.4234 187° South 9 10 20,000  Level FlightAware Transoceanic
04:45PM 29.5070 -121.4238 187° South 9 10 20,000  Level FlightAware Transoceanic
04:45PM 29.0000 -121.5000 195° South 448 516 20,000  Level Oakland Oceanic (ODAPS)
04:46PM 29.5044 -121.4241 187° South 9 10 20,000  Level FlightAware Transoceanic
04:47PM 29.5018 -121.4246 187° South 9 10 20,000  Level FlightAware Transoceanic
04:48PM 29.4992 -121.4249 187° South 9 10 20,000  Level FlightAware Transoceanic
04:49PM 29.4966 -121.4253 187° South 9 10 20,000  Level FlightAware Transoceanic
04:50PM 29.4939 -121.4257 187° South 9 10 20,000  Level FlightAware Transoceanic
04:51PM 29.4913 -121.4261 187° South 9 10 20,000  Level FlightAware Transoceanic
04:52PM 27.5565 -121.9326 195° South 448 516 20,000  Level FlightAware Transoceanic
04:53PM 27.4361 -121.9681 195° South 448 516 20,000  Level FlightAware Transoceanic
04:54PM 27.3158 -122.0036 195° South 448 516 20,000  Level FlightAware Transoceanic
04:55PM 27.1954 -122.0390 195° South 448 516 20,000  Level FlightAware Transoceanic
04:56PM 27.0750 -122.0743 195° South 448 516 20,000  Level FlightAware Transoceanic
04:57PM 26.9546 -122.1095 195° South 448 516 20,000  Level FlightAware Transoceanic
04:58PM 26.8342 -122.1447 195° South 448 516 20,000  Level FlightAware Transoceanic
04:59PM 26.7138 -122.1797 195° South 448 516 20,000  Level FlightAware Transoceanic
05:00PM 26.5934 -122.2147 195° South 448 516 20,000  Level FlightAware Transoceanic
05:01PM 26.4729 -122.2497 195° South 448 516 20,000  Level FlightAware Transoceanic
05:02PM 26.3525 -122.2845 195° South 448 516 20,000  Level FlightAware Transoceanic
05:03PM 26.2321 -122.3193 195° South 448 516 20,000  Level FlightAware Transoceanic
05:04PM 26.1116 -122.3540 194° South 448 516 20,000  Level FlightAware Transoceanic
05:05PM 25.9912 -122.3886 194° South 448 516 20,000  Level FlightAware Transoceanic
05:06PM 25.8707 -122.4232 194° South 448 516 20,000  Level FlightAware Transoceanic
05:07PM 25.7502 -122.4577 194° South 448 516 20,000  Level FlightAware Transoceanic
05:08PM 25.6297 -122.4921 194° South 448 516 20,000  Level FlightAware Transoceanic
05:09PM 25.5093 -122.5265 194° South 448 516 20,000  Level FlightAware Transoceanic
05:10PM 25.3888 -122.5608 194° South 448 516 20,000  Level FlightAware Transoceanic
05:11PM 25.2682 -122.5950 194° South 448 516 20,000  Level FlightAware Transoceanic
05:12PM 25.1477 -122.6292 194° South 448 516 20,000  Level FlightAware Transoceanic
05:13PM 25.0272 -122.6633 194° South 448 516 20,000  Level FlightAware Transoceanic
05:14PM 24.9067 -122.6973 194° South 448 516 20,000  Level FlightAware Transoceanic
05:15PM 24.7861 -122.7312 194° South 448 516 20,000  Level FlightAware Transoceanic
05:16PM 24.6656 -122.7651 194° South 448 516 20,000  Level FlightAware Transoceanic
05:17PM 24.5450 -122.7989 194° South 448 516 20,000  Level FlightAware Transoceanic
05:18PM 24.4245 -122.8327 194° South 448 516 20,000  Level FlightAware Transoceanic
05:19PM 24.3039 -122.8664 194° South 448 516 20,000  Level FlightAware Transoceanic
05:20PM 24.1833 -122.9000 12° North 448 516 20,000  Level FlightAware Transoceanic
05:21PM 24.3144 -122.8692 12° North 448 516 20,000  Level FlightAware Transoceanic
05:22PM 24.4454 -122.8384 12° North 448 516 20,000  Level FlightAware Transoceanic
05:23PM 24.5765 -122.8075 12° North 448 516 20,000  Level FlightAware Transoceanic
05:24PM 24.7075 -122.7765 12° North 448 516 20,000  Level FlightAware Transoceanic
05:25PM 24.8385 -122.7455 12° North 448 516 20,000  Level FlightAware Transoceanic
05:26PM 24.9696 -122.7144 12° North 448 516 20,000  Level FlightAware Transoceanic
05:27PM 25.1006 -122.6833 12° North 448 516 20,000  Level FlightAware Transoceanic
05:28PM 25.2316 -122.6520 12° North 448 516 20,000  Level FlightAware Transoceanic
05:29PM 25.3626 -122.6208 12° North 448 516 20,000  Level FlightAware Transoceanic
05:30PM 25.4936 -122.5894 12° North 448 516 20,000  Level FlightAware Transoceanic
05:31PM 25.6246 -122.5580 12° North 448 516 20,000  Level FlightAware Transoceanic
05:32PM 25.7556 -122.5265 12° North 448 516 20,000  Level FlightAware Transoceanic
05:33PM 25.8865 -122.4949 12° North 448 516 20,000  Level FlightAware Transoceanic
05:34PM 26.0175 -122.4632 12° North 448 516 20,000  Level FlightAware Transoceanic
05:35PM 26.1485 -122.4315 12° North 448 516 20,000  Level FlightAware Transoceanic
05:36PM 26.2794 -122.3998 12° North 448 516 20,000  Level FlightAware Transoceanic
05:37PM 26.4104 -122.3679 12° North 448 516 20,000  Level FlightAware Transoceanic
05:38PM 26.5413 -122.3360 12° North 448 516 20,000  Level FlightAware Transoceanic
05:39PM 26.6723 -122.3040 12° North 448 516 20,000  Level FlightAware Transoceanic
05:40PM 26.8032 -122.2719 12° North 448 516 20,000  Level FlightAware Transoceanic
05:41PM 26.9341 -122.2398 12° North 448 516 20,000  Level FlightAware Transoceanic
05:42PM 27.0650 -122.2076 12° North 448 516 20,000  Level FlightAware Transoceanic
05:43PM 27.1959 -122.1753 12° North 448 516 20,000  Level FlightAware Transoceanic
05:43PM 29.0000 -121.5000 195° South 236 272 20,000  Level Oakland Oceanic (ODAPS)
05:44PM 27.3268 -122.1429 12° North 448 516 20,000  Level FlightAware Transoceanic
05:45PM 27.4577 -122.1105 12° North 448 516 20,000  Level FlightAware Transoceanic
05:46PM 27.5886 -122.0779 12° North 448 516 20,000  Level FlightAware Transoceanic
05:47PM 27.7195 -122.0453 12° North 448 516 20,000  Level FlightAware Transoceanic
05:48PM 27.8503 -122.0126 12° North 448 516 20,000  Level FlightAware Transoceanic
05:49PM 27.9812 -121.9799 12° North 448 516 20,000  Level FlightAware Transoceanic
05:50PM 24.5049 -122.8102 194° South 236 272 20,000  Level FlightAware Transoceanic
05:51PM 24.4405 -122.8282 194° South 236 272 20,000  Level FlightAware Transoceanic
05:52PM 24.3762 -122.8462 194° South 236 272 20,000  Level FlightAware Transoceanic
05:53PM 24.3120 -122.8641 194° South 236 272 20,000  Level FlightAware Transoceanic
05:54PM 24.2476 -122.8821 194° South 236 272 20,000  Level FlightAware Transoceanic
05:55PM 24.1833 -122.9000 12° North 236 272 20,000  Level FlightAware Transoceanic
05:56PM 24.2477 -122.8849 12° North 236 272 20,000  Level FlightAware Transoceanic
05:57PM 24.3120 -122.8698 12° North 236 272 20,000  Level FlightAware Transoceanic
05:58PM 24.3763 -122.8547 12° North 236 272 20,000  Level FlightAware Transoceanic
05:59PM 24.4407 -122.8395 12° North 236 272 20,000  Level FlightAware Transoceanic
06:00PM 24.5050 -122.8244 12° North 236 272 20,000  Level FlightAware Transoceanic
06:01PM 24.5693 -122.8092 12° North 236 272 20,000  Level FlightAware Transoceanic
06:02PM 24.6337 -122.7940 12° North 236 272 20,000  Level FlightAware Transoceanic
06:03PM 24.6980 -122.7788 12° North 236 272 20,000  Level FlightAware Transoceanic
06:04PM 24.7623 -122.7636 12° North 236 272 20,000  Level FlightAware Transoceanic
06:05PM 24.8266 -122.7483 12° North 236 272 20,000  Level FlightAware Transoceanic
06:06PM 24.8909 -122.7331 12° North 236 272 20,000  Level FlightAware Transoceanic
06:07PM 24.9553 -122.7178 12° North 236 272 20,000  Level FlightAware Transoceanic
06:08PM 25.0196 -122.7025 12° North 236 272 20,000  Level FlightAware Transoceanic
06:09PM 25.0839 -122.6872 12° North 236 272 20,000  Level FlightAware Transoceanic
06:10PM 25.1482 -122.6719 12° North 236 272 20,000  Level FlightAware Transoceanic
06:11PM 25.2125 -122.6566 12° North 236 272 20,000  Level FlightAware Transoceanic
06:12PM 25.2768 -122.6412 12° North 236 272 20,000  Level FlightAware Transoceanic
06:13PM 25.3412 -122.6259 12° North 236 272 20,000  Level FlightAware Transoceanic
06:14PM 25.4055 -122.6105 12° North 236 272 20,000  Level FlightAware Transoceanic
06:15PM 25.4698 -122.5951 12° North 236 272 20,000  Level FlightAware Transoceanic
06:16PM 25.5341 -122.5797 12° North 236 272 20,000  Level FlightAware Transoceanic
06:17PM 25.5984 -122.5642 12° North 236 272 20,000  Level FlightAware Transoceanic
06:18PM 25.6627 -122.5488 12° North 236 272 20,000  Level FlightAware Transoceanic
06:19PM 25.7270 -122.5333 12° North 236 272 20,000  Level FlightAware Transoceanic
06:20PM 25.7913 -122.5179 12° North 236 272 20,000  Level FlightAware Transoceanic
06:21PM 25.8556 -122.5024 12° North 236 272 20,000  Level FlightAware Transoceanic
06:22PM 25.9199 -122.4868 12° North 236 272 20,000  Level FlightAware Transoceanic
06:23PM 25.9842 -122.4713 12° North 236 272 20,000  Level FlightAware Transoceanic
06:24PM 26.0485 -122.4558 12° North 236 272 20,000  Level FlightAware Transoceanic
06:25PM 26.1128 -122.4402 12° North 236 272 20,000  Level FlightAware Transoceanic
06:26PM 26.1770 -122.4246 12° North 236 272 20,000  Level FlightAware Transoceanic
06:27PM 26.2413 -122.4090 12° North 236 272 20,000  Level FlightAware Transoceanic
06:28PM 26.3056 -122.3934 12° North 236 272 20,000  Level FlightAware Transoceanic
06:29PM 26.3699 -122.3778 12° North 236 272 20,000  Level FlightAware Transoceanic
06:30PM 26.4342 -122.3621 12° North 236 272 20,000  Level FlightAware Transoceanic
06:31PM 26.4985 -122.3465 12° North 236 272 20,000  Level FlightAware Transoceanic
06:32PM 26.5627 -122.3308 12° North 236 272 20,000  Level FlightAware Transoceanic
06:33PM 26.6270 -122.3151 12° North 236 272 20,000  Level FlightAware Transoceanic
06:34PM 26.6913 -122.2993 12° North 236 272 20,000  Level FlightAware Transoceanic
06:35PM 26.7556 -122.2836 12° North 236 272 20,000  Level FlightAware Transoceanic
06:36PM 26.8199 -122.2678 12° North 236 272 20,000  Level FlightAware Transoceanic
06:37PM 26.8841 -122.2521 12° North 236 272 20,000  Level FlightAware Transoceanic
06:38PM 26.9484 -122.2363 12° North 236 272 20,000  Level FlightAware Transoceanic
06:39PM 27.0126 -122.2205 12° North 236 272 20,000  Level FlightAware Transoceanic
06:40PM 27.0769 -122.2046 12° North 236 272 20,000  Level FlightAware Transoceanic
06:41PM 27.1412 -122.1888 12° North 236 272 20,000  Level FlightAware Transoceanic
06:42PM 27.2054 -122.1729 12° North 236 272 20,000  Level FlightAware Transoceanic
06:43PM 27.2697 -122.1570 12° North 236 272 20,000 8,520 Level FlightAware Transoceanic
06:43PM 27.2500 -122.4667 26° Northeast 437 503 30,000  Climbing Oakland Oceanic (ODAPS)
06:44PM 27.3340 -122.1411 12° North 236 272 20,000 -5,460 Descending FlightAware Transoceanic
06:45PM 27.3982 -122.1252 12° North 236 272 20,000  Level FlightAware Transoceanic
06:46PM 27.4625 -122.1093 12° North 236 272 20,000  Level FlightAware Transoceanic
06:47PM 27.5267 -122.0933 12° North 236 272 20,000  Level FlightAware Transoceanic
06:48PM 27.5910 -122.0773 12° North 236 272 20,000 4,980 Level FlightAware Transoceanic
06:49PM 28.1259 -121.9873 26° Northeast 437 503 30,000 4,980 Climbing FlightAware Transoceanic
06:50PM 28.2352 -121.9268 26° Northeast 437 503 30,000  Level FlightAware Transoceanic
06:51PM 28.3445 -121.8662 26° Northeast 437 503 30,000  Level FlightAware Transoceanic
06:52PM 28.4539 -121.8055 26° Northeast 437 503 30,000  Level FlightAware Transoceanic
06:53PM 28.5631 -121.7447 26° Northeast 437 503 30,000  Level FlightAware Transoceanic
06:54PM 28.6724 -121.6837 26° Northeast 437 503 30,000  Level FlightAware Transoceanic
06:55PM 28.7816 -121.6226 26° Northeast 437 503 30,000  Level FlightAware Transoceanic
06:56PM 28.8908 -121.5614 26° Northeast 437 503 30,000  Level FlightAware Transoceanic
06:57PM 29.0000 -121.5000 North 437 503 30,000  Level FlightAware Transoceanic
06:58PM 29.1324 -121.4789 North 437 503 30,000  Level FlightAware Transoceanic
06:59PM 29.2648 -121.4577 North 437 503 30,000  Level FlightAware Transoceanic
07:00PM 29.3971 -121.4365 North 437 503 30,000  Level FlightAware Transoceanic
07:01PM 29.5295 -121.4152 North 437 503 30,000  Level FlightAware Transoceanic
07:02PM 29.6619 -121.3939 North 437 503 30,000  Level FlightAware Transoceanic
07:03PM 29.7942 -121.3725 North 437 503 30,000  Level FlightAware Transoceanic
07:04PM 29.9266 -121.3510 North 437 503 30,000  Level FlightAware Transoceanic
07:05PM 30.0590 -121.3295 North 437 503 30,000  Level FlightAware Transoceanic
07:06PM 30.1913 -121.3080 North 437 503 30,000  Level FlightAware Transoceanic
07:07PM 30.3237 -121.2863 North 437 503 30,000  Level FlightAware Transoceanic
07:08PM 30.4560 -121.2647 North 437 503 30,000  Level FlightAware Transoceanic
07:09PM 30.5883 -121.2429 North 437 503 30,000  Level FlightAware Transoceanic
07:10PM 30.7207 -121.2211 North 437 503 30,000  Level FlightAware Transoceanic
07:10PM 30.4889 -121.2614 46° Northeast 408 470 30,000  Level Los Angeles Center
07:11PM 30.8530 -121.1993 North 437 503 30,000 -120 Level FlightAware Transoceanic
07:11PM 30.6050 -121.2436 North 421 484 29,900  Descending Los Angeles Center
07:12PM 30.9853 -121.1774 North 437 503 30,000 60 Climbing FlightAware Transoceanic
07:12PM 30.7203 -121.2239 North 420 483 30,000  Level Los Angeles Center
07:13PM 31.1177 -121.1554 North 437 503 30,000  Level FlightAware Transoceanic
07:13PM 30.8381 -121.2067 North 423 487 30,000  Level Los Angeles Center
07:14PM 31.2376 -121.1281 46° Northeast  Level FlightAware Approximate
07:14PM 30.9539 -121.1889 North 422 486 30,000  Level Los Angeles Center
07:15PM 31.3188 -121.0286 46° Northeast  Level FlightAware Approximate
07:15PM 31.0700 -121.1667 North 422 486 30,000  Level Los Angeles Center
07:16PM 31.2081 -121.1350 11° North 422 486 30,000  Level Los Angeles Center
07:17PM 31.3139 -121.0772 25° Northeast 413 475 30,000  Level Los Angeles Center
07:18PM 31.3894 -120.9600 53° Northeast 437 503 30,000  Level Los Angeles Center
07:19PM 31.4819 -120.8469 46° Northeast 439 505 30,000  Level Los Angeles Center
07:20PM 31.5558 -120.7528 47° Northeast 439 505 30,000  Level Los Angeles Center
07:21PM 31.6400 -120.6497 46° Northeast 438 504 30,000  Level Los Angeles Center
07:22PM 31.7289 -120.5367 47° Northeast 379 436 30,000  Level Los Angeles Center
07:23PM 31.8014 -120.4469 46° Northeast 377 434 30,000  Level Los Angeles Center
07:24PM 31.8750 -120.3558 46° Northeast 384 442 30,000  Level Los Angeles Center
07:25PM 31.9569 -120.2522 47° Northeast 438 504 30,000 -60 Level Los Angeles Center
07:27PM 32.0664 -120.1147 47° Northeast 484 557 29,900  Descending Los Angeles Center
07:28PM 32.1758 -119.9733 48° Northeast 520 598 30,000  Climbing Los Angeles Center
07:33PM 32.7390 -119.2520 48° Northeast 529 609 30,100 60 Climbing FlightAware
07:34PM 32.8060 -119.1650 47° Northeast 528 608 30,500 600 Climbing FlightAware
07:35PM 32.8730 -119.0780 47° Northeast 531 611 30,900 300 Climbing FlightAware
07:35PM 32.9480 -118.9800 48° Northeast 533 613 31,000 60 Climbing FlightAware
07:36PM 33.0160 -118.8920 47° Northeast 536 617 31,000  Level FlightAware
07:37PM 33.0820 -118.8050 48° Northeast 532 612 31,000 -2,280 Level FlightAware
07:37PM 33.1540 -118.7110 48° Northeast 505 581 27,800 -4,500 Descending FlightAware
07:38PM 33.2160 -118.6300 48° Northeast 507 583 24,700 -2,700 Descending FlightAware
07:39PM 33.2900 -118.5330 48° Northeast 494 568 24,000 -540 Descending FlightAware
07:40PM 33.3510 -118.4510 48° Northeast 494 568 24,000  Level FlightAware
07:40PM 33.4090 -118.3650 51° Northeast 506 582 24,000  Level FlightAware
07:40PM 33.4220 -118.3270 68° East 511 588 24,000  Level FlightAware
07:41PM 33.4210 -118.1950 90° East 514 592 24,000  Level FlightAware
07:42PM 33.4170 -118.0800 92° East 514 592 24,000 -180 Level FlightAware
07:43PM 33.4140 -117.9680 92° East 513 590 23,800 -1,080 Descending FlightAware
07:43PM 33.4100 -117.8370 92° East 505 581 22,500 -2,400 Descending FlightAware
07:44PM 33.4070 -117.7270 92° East 491 565 20,400 -3,120 Descending FlightAware
07:45PM 33.4030 -117.6100 92° East 469 540 18,100 -2,400 Descending FlightAware
07:45PM 33.3990 -117.5060 93° East 456 525 17,000 -780 Descending FlightAware
07:46PM 33.3950 -117.4040 93° East 459 528 17,100  Climbing FlightAware
07:47PM 33.3920 -117.2950 92° East 443 510 17,000 -300 Descending FlightAware
07:48PM 33.4010 -117.1690 85° East 402 463 16,600 -720 Descending FlightAware
07:48PM 33.4160 -117.1440 54° Northeast 390 449 16,200 -2,040 Descending FlightAware
07:48PM 33.4380 -117.1230 39° Northeast 365 420 15,600 -1,860 Descending FlightAware
07:49PM 33.4980 -117.1070 13° North 311 358 14,500 -1,800 Descending FlightAware
07:50PM 33.5570 -117.1230 347° North 286 329 13,100 -1,920 Descending FlightAware
07:50PM 33.5970 -117.1520 329° Northwest 241 277 11,800 -2,040 Descending FlightAware
07:51PM 33.6290 -117.1880 317° Northwest 222 255 10,400 -1,980 Descending FlightAware
07:51PM 33.6390 -117.2000 315° West 217 250 10,000 -1,920 Descending FlightAware
07:52PM 33.6610 -117.2260 315° West 210 242 9,000 -2,220 Descending FlightAware
07:52PM 33.6790 -117.2460 317° Northwest 212 244 8,000 -2,100 Descending FlightAware
07:53PM 33.7000 -117.2690 318° Northwest 211 243 7,100 -1,800 Descending FlightAware
07:53PM 33.7190 -117.2920 315° West 227 261 6,200 -1,140 Descending FlightAware
07:54PM 33.7400 -117.3200 312° West 232 267 6,100 -180 Descending FlightAware
07:54PM 33.7500 -117.3330 313° West 230 265 6,100 -120 Level FlightAware
07:54PM 33.7820 -117.3640 321° Northwest 230 265 6,000 -1,080 Descending FlightAware
07:55PM 33.8090 -117.3860 326° Northwest 226 260 4,800 -1,680 Descending FlightAware
07:56PM 33.8330 -117.4080 323° Northwest 222 255 4,200 -660 Descending FlightAware
07:56PM 33.8620 -117.4330 324° Northwest 226 260 4,100 -120 Descending FlightAware
07:57PM 33.8860 -117.4540 324° Northwest 221 254 4,100  Level FlightAware
07:57PM 33.9080 -117.4740 323° Northwest 223 257 4,100  Level FlightAware
07:58PM 33.9390 -117.5010 324° Northwest 222 255 4,100  Level FlightAware
07:58PM 33.9570 -117.5100 337° Northwest 225 259 4,100  Level FlightAware
07:58PM 33.9780 -117.5060 North 227 261 4,100 -240 Level FlightAware
07:59PM 34.0050 -117.4920 23° Northeast 224 258 3,900 -660 Descending FlightAware
07:59PM 34.0230 -117.4700 45° Northeast 220 253 3,500 -600 Descending FlightAware
07:59PM 34.0310 -117.4530 60° Northeast 209 241 3,500  Level FlightAware
08:00PM 34.0400 -117.4220 71° East 196 226 3,500  Level FlightAware
08:00PM 34.0470 -117.3970 71° East 184 212 3,500 -240 Level FlightAware
08:01PM 34.0540 -117.3740 70° East 160 184 3,300 -600 Descending FlightAware
08:01PM 34.0620 -117.3480 70° East 149 171 2,900 -780 Descending FlightAware
08:02PM 34.0660 -117.3330 72° East 147 169 2,600 -900 Descending FlightAware
08:02PM 34.0740 -117.3060 70° East 150 173 2,100 -900 Descending FlightAware
08:03PM 34.0800 -117.2880 68° East 149 171 1,800 -780 Descending FlightAware
08:03PM 34.0870 -117.2630 71° East 142 163 1,400 -720 Descending FlightAware
08:03PM 34.0900 -117.2550 66° East 137 158 1,300 -300 Descending FlightAware
08:04PM 34.0960 -117.2330 72° East 137 158 1,200 -240 Descending FlightAware
08:11PM 34.0954 -117.2349 216° Southwest  Level Estimated
08:12PM 34.0954 -117.2349 215° Southwest  Level Estimated
08:13PM 34.0954 -117.2349 215° Southwest  Level Estimated